Cairns, Queensland

8:45 AM AEST on August 31, 2015 (GMT +1000)
Cairns International | | Change Station
CLOSE
Current Station
Airport
Location: Cairns,
Elevation: 10 ft
Nearby Weather Stations

Elev 10 ft 16.87 °S, 145.75 °E | Updated 15 minutes ago

Partly Cloudy
Partly Cloudy
75 °F
Feels Like 75 °F
N
7
Wind Variable Wind from SE

Today
High -- | Low -- °F
--% Chance of Precip.
Yesterday
High -- | Low -- °F
Precip. -- in
6:24 AM 6:10 PM
Full, 98% visible
Pressure 30.01 in
Visibility 6.2 miles
Clouds Few 2500 ft
Dew Point 66 °F
Humidity 73%
Rainfall 0.00 in
Snow Depth Not available.
UV 3 out of 12
Pollen Not available.
Air Quality Not available.
Flu Activity Not available.
METAR YBCS 302230Z 14006KT 9999 FEW025 24/19 Q1016
Pressure 30.01 in
Visibility 6.2 miles
Clouds Few 2500 ft
Dew Point 66 °F
Humidity 73%
Rainfall 0.00 in
Snow Depth Not available.
UV 3 out of 12
Pollen Not available.
Air Quality Not available.
Flu Activity Not available.
METAR YBCS 302230Z 14006KT 9999 FEW025 24/19 Q1016

10-Day Weather Forecast

×

Almanac

Astronomy

Aug. 31, 2015 Rise Set
Actual Time
Civil Twilight
Nautical Twilight
Astronomical Twilight
Moon
Length of Visible Light
Length of Day
Tomorrow will be .
, % of the Moon is Illuminated

Today's Extremes

Country Highs Country Lows

Community

WunderPhotos

Upload Photos

1,851,075 photos uploaded!

WunderBlogs® & News

Nearby

Air Quality

  Air Quality AQ Index Pollutant
Not available.

Snow Depth

Station Depth Elevation

Earthquake Activity

City Distance Mag. Time & Date
Minimum magnitude displayed is 2.5.

Coastal Water Temperatures

Place Temperature

Stations

Nearby Weather Stations

Station Location Temp. Windchill Dew Point Humidity Wind Precip. Elev Updated Type